Time;durP1;ratioP1;P1;durP2;ratioP2;P2;SDS_P1;SDS_P2;PMS_P1;PMS_P2;Temp;Humidity;BMP_temperature;BMP_pressure;BME280_temperature;BME280_humidity;BME280_pressure;Samples;Min_cycle;Max_cycle;Signal;HPM_P1;HPM_P2
2021/08/26 00:07:01;;;;;;;4.67;4.13;;;18.10;35.50;;;;;;10442497;28;20715;-77
2021/08/26 00:12:06;;;;;;;5.40;4.47;;;18.10;36.00;;;;;;10447149;28;20227;-77
2021/08/26 00:17:09;;;;;;;4.60;4.10;;;18.00;36.50;;;;;;10451299;28;20244;-77
2021/08/26 00:22:17;;;;;;;7.33;4.70;;;18.00;35.80;;;;;;10451551;28;20233;-77
2021/08/26 00:27:23;;;;;;;6.83;4.63;;;18.00;36.30;;;;;;10433297;28;20601;-77
2021/08/26 00:32:27;;;;;;;5.30;4.80;;;18.00;36.00;;;;;;10451459;28;20243;-77
2021/08/26 00:37:32;;;;;;;5.00;4.20;;;17.90;36.40;;;;;;10449471;28;20221;-77
2021/08/26 00:42:36;;;;;;;6.03;4.53;;;17.90;36.50;;;;;;10445098;28;20241;-77
2021/08/26 00:47:42;;;;;;;4.80;4.30;;;17.90;36.40;;;;;;10448346;28;20231;-77
2021/08/26 00:52:47;;;;;;;5.67;4.73;;;17.80;36.20;;;;;;10450317;28;20232;-77
2021/08/26 00:57:50;;;;;;;5.47;4.50;;;17.80;36.70;;;;;;10438169;28;20225;-77
2021/08/26 01:03:03;;;;;;;5.53;4.10;;;17.70;36.30;;;;;;10442369;28;20229;-77
2021/08/26 01:08:14;;;;;;;5.00;4.47;;;17.60;37.50;;;;;;10434078;28;20240;-77
2021/08/26 01:13:18;;;;;;;4.60;4.07;;;17.60;38.00;;;;;;10449484;28;20233;-77
2021/08/26 01:18:22;;;;;;;5.80;4.50;;;17.50;37.20;;;;;;10446840;28;20319;-77
2021/08/26 01:23:28;;;;;;;6.33;4.70;;;17.50;37.20;;;;;;10446179;28;20233;-77
2021/08/26 01:28:37;;;;;;;5.70;4.20;;;17.50;37.70;;;;;;10439425;28;20228;-77
2021/08/26 01:33:40;;;;;;;5.00;4.17;;;17.60;38.10;;;;;;10448011;28;20236;-77
2021/08/26 01:38:45;;;;;;;4.50;4.00;;;17.60;37.10;;;;;;10448124;28;20227;-77
2021/08/26 01:43:51;;;;;;;6.07;4.33;;;17.60;37.50;;;;;;10448469;28;20233;-77
2021/08/26 01:48:54;;;;;;;5.03;4.13;;;17.60;37.90;;;;;;10431588;28;20318;-77
2021/08/26 01:53:57;;;;;;;5.50;4.63;;;17.50;37.20;;;;;;10448061;28;20236;-77
2021/08/26 01:59:02;;;;;;;4.80;4.30;;;17.50;37.20;;;;;;10447641;28;20236;-77
2021/08/26 02:04:05;;;;;;;4.83;4.17;;;17.50;37.50;;;;;;10430903;28;20229;-77
2021/08/26 02:09:08;;;;;;;6.67;4.67;;;17.50;37.30;;;;;;10446418;28;20221;-77
2021/08/26 02:14:13;;;;;;;5.60;4.60;;;17.50;37.30;;;;;;10444987;28;20610;-77
2021/08/26 02:19:16;;;;;;;6.07;5.27;;;17.40;37.60;;;;;;10447625;28;20243;-77
2021/08/26 02:24:19;;;;;;;5.87;5.10;;;17.40;37.30;;;;;;10443564;28;20239;-77
2021/08/26 02:29:25;;;;;;;6.77;5.50;;;17.40;37.30;;;;;;10438596;28;20266;-77
2021/08/26 02:34:28;;;;;;;6.10;5.47;;;17.40;37.50;;;;;;10446798;28;20229;-77
2021/08/26 02:39:31;;;;;;;6.87;5.57;;;17.40;37.30;;;;;;10446635;28;20225;-77
2021/08/26 02:44:36;;;;;;;6.57;5.63;;;17.40;37.20;;;;;;10446288;28;20232;-77
2021/08/26 02:49:40;;;;;;;6.70;5.80;;;17.50;37.40;;;;;;10442842;28;20224;-76
2021/08/26 02:54:44;;;;;;;7.10;5.93;;;17.50;37.30;;;;;;10445762;28;20931;-76
2021/08/26 02:59:49;;;;;;;5.93;5.00;;;17.60;37.30;;;;;;10445784;28;20221;-76
2021/08/26 03:04:52;;;;;;;6.10;4.80;;;17.60;37.20;;;;;;10445473;28;20233;-76
2021/08/26 03:09:55;;;;;;;8.10;6.13;;;17.60;37.20;;;;;;10433470;28;20702;-76
2021/08/26 03:15:00;;;;;;;8.23;6.20;;;17.60;37.00;;;;;;10428866;28;20744;-75
2021/08/26 03:20:03;;;;;;;6.97;5.87;;;17.60;37.30;;;;;;10437815;28;20232;-75
2021/08/26 03:25:08;;;;;;;7.97;5.90;;;17.60;37.20;;;;;;10445136;28;20241;-76
2021/08/26 03:30:14;;;;;;;7.47;6.50;;;17.60;37.20;;;;;;10438751;28;20228;-76
2021/08/26 03:35:17;;;;;;;7.00;6.17;;;17.50;37.40;;;;;;10428416;28;20241;-76
2021/08/26 03:40:20;;;;;;;7.17;6.40;;;17.50;37.20;;;;;;10447762;28;20233;-76
2021/08/26 03:45:25;;;;;;;7.43;5.63;;;17.50;37.30;;;;;;10449605;28;20712;-75
2021/08/26 03:50:28;;;;;;;7.70;6.17;;;17.40;37.60;;;;;;10450759;28;20238;-76
2021/08/26 03:55:32;;;;;;;6.97;5.87;;;17.40;37.40;;;;;;10452264;28;20225;-77
2021/08/26 04:00:37;;;;;;;7.17;5.90;;;17.40;37.50;;;;;;10451622;28;20225;-76
2021/08/26 04:05:40;;;;;;;7.07;6.37;;;17.40;37.60;;;;;;10437705;28;20257;-76
2021/08/26 04:10:43;;;;;;;7.93;6.53;;;17.40;37.30;;;;;;10446121;28;21008;-76
2021/08/26 04:15:48;;;;;;;9.60;6.67;;;17.30;37.30;;;;;;10452249;28;20233;-76
2021/08/26 04:20:51;;;;;;;8.83;6.97;;;17.30;37.80;;;;;;10451718;28;20249;-76
2021/08/26 04:25:54;;;;;;;9.63;6.20;;;17.30;37.70;;;;;;10451521;28;20221;-76
2021/08/26 04:30:59;;;;;;;6.80;6.07;;;17.30;37.70;;;;;;10451076;28;20240;-76
2021/08/26 04:36:02;;;;;;;7.97;6.90;;;17.30;37.80;;;;;;10450677;28;20765;-77
2021/08/26 04:41:05;;;;;;;7.83;6.50;;;17.30;37.50;;;;;;10443183;28;20229;-77
2021/08/26 04:46:10;;;;;;;6.73;6.03;;;17.30;37.70;;;;;;10442352;28;20717;-77
2021/08/26 04:51:13;;;;;;;8.37;6.37;;;17.40;37.90;;;;;;10449698;28;20258;-76
2021/08/26 04:56:16;;;;;;;7.80;6.70;;;17.40;37.80;;;;;;10447730;28;20229;-76
2021/08/26 05:01:21;;;;;;;9.43;6.83;;;17.40;37.70;;;;;;10443877;28;20232;-76
2021/08/26 05:06:24;;;;;;;9.37;6.60;;;17.40;37.90;;;;;;10447016;28;20229;-76
2021/08/26 05:11:28;;;;;;;7.53;6.73;;;17.40;37.80;;;;;;10448551;28;20243;-76
2021/08/26 05:16:33;;;;;;;8.40;7.13;;;17.50;37.80;;;;;;10446095;28;20225;-76
2021/08/26 05:21:36;;;;;;;8.90;7.13;;;17.50;38.20;;;;;;10448116;28;20225;-76
2021/08/26 05:26:39;;;;;;;7.33;6.63;;;17.50;37.90;;;;;;10447634;28;20235;-76
2021/08/26 05:31:44;;;;;;;7.80;6.67;;;17.50;37.80;;;;;;10446780;28;20225;-76
2021/08/26 05:36:47;;;;;;;7.40;6.53;;;17.60;38.20;;;;;;10447231;28;20235;-76
2021/08/26 05:41:50;;;;;;;9.10;6.83;;;17.50;38.00;;;;;;10446633;28;20228;-76
2021/08/26 05:46:55;;;;;;;7.37;6.27;;;17.60;38.10;;;;;;10446140;28;20225;-76
2021/08/26 05:51:58;;;;;;;8.30;7.17;;;17.60;38.20;;;;;;10447567;28;20224;-76
2021/08/26 05:57:03;;;;;;;8.97;7.20;;;17.70;38.10;;;;;;10446608;28;20224;-76
2021/08/26 06:02:07;;;;;;;8.70;6.37;;;17.70;38.00;;;;;;10445535;28;20233;-76
2021/08/26 06:07:11;;;;;;;7.47;6.67;;;17.80;38.40;;;;;;10446856;28;20232;-76
2021/08/26 06:12:14;;;;;;;7.77;6.57;;;17.80;38.00;;;;;;10439300;28;20245;-76
2021/08/26 06:17:19;;;;;;;8.83;7.20;;;17.80;38.20;;;;;;10444201;28;20229;-78
2021/08/26 06:22:23;;;;;;;7.90;6.83;;;17.90;38.50;;;;;;10446305;28;20240;-77
2021/08/26 06:27:28;;;;;;;8.23;7.20;;;17.90;38.60;;;;;;10441187;28;20225;-77
2021/08/26 06:32:33;;;;;;;7.80;6.53;;;17.90;39.10;;;;;;10449260;28;20232;-77
2021/08/26 06:37:36;;;;;;;7.63;6.60;;;17.90;39.10;;;;;;10448334;28;20247;-77
2021/08/26 06:42:39;;;;;;;8.90;7.57;;;18.00;38.90;;;;;;10446653;28;20231;-77
2021/08/26 06:47:44;;;;;;;7.43;6.70;;;18.00;38.90;;;;;;10447355;28;20227;-75
2021/08/26 06:52:47;;;;;;;7.50;6.73;;;18.00;39.10;;;;;;10447897;28;20232;-75
2021/08/26 06:57:50;;;;;;;8.30;7.50;;;18.10;39.10;;;;;;10447789;28;20231;-75
2021/08/26 07:02:55;;;;;;;9.10;7.70;;;18.10;39.30;;;;;;10448215;28;20228;-76
2021/08/26 07:07:59;;;;;;;8.80;7.37;;;18.10;39.60;;;;;;10447836;28;20221;-76
2021/08/26 07:13:02;;;;;;;8.50;7.47;;;18.00;39.30;;;;;;10452115;28;20224;-76
2021/08/26 07:18:07;;;;;;;8.90;7.93;;;18.10;39.50;;;;;;10454607;28;20233;-76
2021/08/26 07:23:10;;;;;;;8.87;7.87;;;18.10;39.70;;;;;;10455020;28;20243;-76
2021/08/26 07:28:13;;;;;;;10.23;8.33;;;18.10;39.60;;;;;;10455008;28;20784;-76
2021/08/26 07:33:18;;;;;;;9.63;8.63;;;18.10;39.50;;;;;;10454755;28;20291;-76
2021/08/26 07:38:22;;;;;;;10.13;9.03;;;18.20;40.00;;;;;;10453766;28;20233;-77
2021/08/26 07:43:31;;;;;;;9.80;8.57;;;18.10;39.90;;;;;;10452922;28;20834;-76
2021/08/26 07:48:35;;;;;;;12.50;8.77;;;18.10;39.80;;;;;;10454256;28;20229;-76
2021/08/26 07:53:39;;;;;;;11.30;8.80;;;18.20;40.10;;;;;;10454438;28;20225;-76
2021/08/26 07:58:49;;;;;;;9.90;8.37;;;18.20;39.80;;;;;;10454991;28;20229;-76
2021/08/26 08:04:00;;;;;;;11.60;8.93;;;18.10;40.60;;;;;;10455131;28;20228;-75
2021/08/26 08:09:07;;;;;;;11.47;9.17;;;18.10;41.00;;;;;;10455241;28;20300;-76
2021/08/26 08:14:11;;;;;;;13.07;10.47;;;18.10;41.00;;;;;;10449605;28;20709;-76
2021/08/26 08:19:15;;;;;;;11.07;9.97;;;18.10;40.40;;;;;;10448569;28;20224;-76
2021/08/26 08:24:19;;;;;;;11.27;10.07;;;18.10;41.00;;;;;;10446874;28;20823;-75
2021/08/26 08:29:22;;;;;;;13.87;10.97;;;18.00;40.50;;;;;;10445433;28;20630;-75
2021/08/26 08:34:27;;;;;;;13.43;11.10;;;18.00;40.60;;;;;;10446483;28;20233;-75
2021/08/26 08:39:41;;;;;;;12.77;11.27;;;17.90;41.30;;;;;;10446360;28;20220;-75
2021/08/26 08:44:46;;;;;;;13.23;11.87;;;17.90;42.10;;;;;;10444533;28;20697;-75
2021/08/26 08:49:52;;;;;;;13.47;12.17;;;17.80;42.20;;;;;;10449094;28;20298;-76
2021/08/26 08:54:55;;;;;;;14.23;12.73;;;17.70;42.20;;;;;;10450145;28;20642;-75
2021/08/26 08:59:58;;;;;;;16.33;14.80;;;17.60;41.70;;;;;;10448621;28;20580;-75
2021/08/26 09:05:04;;;;;;;18.83;16.83;;;17.50;42.00;;;;;;10449705;28;20223;-75
2021/08/26 09:10:12;;;;;;;16.20;14.40;;;17.50;43.20;;;;;;10451378;28;20237;-75
2021/08/26 09:15:33;;;;;;;15.23;13.73;;;17.50;43.70;;;;;;10448022;28;20255;-75
2021/08/26 09:20:52;;;;;;;13.33;11.83;;;17.40;43.40;;;;;;10448606;28;20277;-76
2021/08/26 09:26:13;;;;;;;12.60;11.30;;;17.50;44.00;;;;;;10447623;28;20637;-75
2021/08/26 09:31:18;;;;;;;11.60;10.43;;;17.50;43.20;;;;;;10452920;28;20239;-75
2021/08/26 09:36:26;;;;;;;10.90;9.83;;;17.50;43.40;;;;;;10448919;28;20233;-75
2021/08/26 09:41:52;;;;;;;12.00;10.80;;;17.50;44.10;;;;;;10450493;28;20228;-75
2021/08/26 09:46:57;;;;;;;11.13;10.03;;;17.50;44.30;;;;;;10438494;28;20229;-76
2021/08/26 09:52:08;;;;;;;13.37;11.93;;;17.50;43.40;;;;;;10449508;28;20221;-75
2021/08/26 09:57:23;;;;;;;12.70;11.40;;;17.50;44.80;;;;;;10449387;28;20715;-75
2021/08/26 10:02:28;;;;;;;13.47;12.17;;;17.60;44.60;;;;;;10449637;28;20227;-75
2021/08/26 10:07:33;;;;;;;11.90;10.80;;;17.60;44.10;;;;;;10440122;28;20221;-75
2021/08/26 10:12:37;;;;;;;12.47;11.27;;;17.60;44.40;;;;;;10448722;28;20229;-75
2021/08/26 10:17:41;;;;;;;13.10;11.87;;;17.60;44.10;;;;;;10449885;28;20225;-75
2021/08/26 10:22:46;;;;;;;13.53;12.23;;;17.60;44.10;;;;;;10444860;28;20771;-77
2021/08/26 10:27:51;;;;;;;11.30;10.07;;;17.60;44.60;;;;;;10449037;28;20225;-75
2021/08/26 10:33:06;;;;;;;10.70;9.23;;;17.60;44.80;;;;;;10432085;28;20792;-75
2021/08/26 10:38:21;;;;;;;9.73;8.87;;;17.70;46.80;;;;;;10434314;28;20217;-75
2021/08/26 10:43:36;;;;;;;10.50;9.50;;;17.70;45.90;;;;;;10440199;28;20240;-75
2021/08/26 10:48:40;;;;;;;10.73;9.73;;;17.80;45.50;;;;;;10443207;28;20225;-75
2021/08/26 10:53:46;;;;;;;10.27;9.27;;;17.80;44.70;;;;;;10438298;28;20308;-75
2021/08/26 10:58:50;;;;;;;9.83;8.83;;;17.80;45.40;;;;;;10446034;28;20875;-75
2021/08/26 11:03:57;;;;;;;9.53;8.63;;;17.90;44.60;;;;;;10444884;28;20873;-75
2021/08/26 11:09:28;;;;;;;12.17;9.47;;;18.00;45.40;;;;;;10444500;28;20223;-77
2021/08/26 11:14:47;;;;;;;10.17;9.27;;;18.00;45.20;;;;;;10444846;28;20241;-75
2021/08/26 11:19:51;;;;;;;9.23;8.33;;;18.00;46.00;;;;;;10437332;28;20708;-75
2021/08/26 11:25:00;;;;;;;10.00;9.10;;;18.10;44.60;;;;;;10442587;28;20760;-75
2021/08/26 11:30:23;;;;;;;10.00;9.10;;;18.10;45.80;;;;;;10446053;28;20245;-75
2021/08/26 11:35:30;;;;;;;10.40;9.50;;;18.10;45.30;;;;;;10445671;28;20229;-75
2021/08/26 11:40:35;;;;;;;9.60;8.70;;;18.10;44.60;;;;;;10443506;28;20221;-76
2021/08/26 11:45:40;;;;;;;7.73;7.10;;;18.10;46.60;;;;;;10442659;28;20225;-77
2021/08/26 11:50:45;;;;;;;6.53;5.90;;;18.20;45.50;;;;;;10443061;28;20217;-77
2021/08/26 11:55:50;;;;;;;5.63;5.23;;;18.30;46.40;;;;;;10441660;28;20225;-77
2021/08/26 12:00:54;;;;;;;5.90;5.40;;;18.40;46.10;;;;;;10440380;28;20257;-77
2021/08/26 12:05:58;;;;;;;6.17;5.67;;;18.50;46.10;;;;;;10447764;28;20670;-75
2021/08/26 12:11:03;;;;;;;6.67;6.17;;;18.60;47.10;;;;;;10447722;28;20221;-76
2021/08/26 12:16:06;;;;;;;7.03;6.43;;;18.80;46.90;;;;;;10450766;28;20584;-75
2021/08/26 12:21:10;;;;;;;7.70;7.00;;;19.00;45.90;;;;;;10442956;28;20220;-76
2021/08/26 12:26:17;;;;;;;7.47;6.87;;;19.20;45.50;;;;;;10447540;28;20676;-75
2021/08/26 12:31:21;;;;;;;7.03;6.43;;;19.30;45.70;;;;;;10447797;28;20320;-75
2021/08/26 12:36:25;;;;;;;7.47;6.87;;;19.30;45.70;;;;;;10448555;28;20662;-75
2021/08/26 12:42:06;;;;;;;7.47;6.77;;;19.40;45.70;;;;;;10445940;28;20217;-75
2021/08/26 12:47:12;;;;;;;7.07;6.40;;;19.60;46.00;;;;;;10449581;28;20225;-74
2021/08/26 12:52:16;;;;;;;6.03;5.50;;;19.70;45.10;;;;;;10443034;28;20241;-76
2021/08/26 12:57:23;;;;;;;6.47;5.87;;;19.80;44.90;;;;;;10450757;28;20235;-76
2021/08/26 13:02:26;;;;;;;6.13;5.63;;;19.90;45.10;;;;;;10410950;28;20233;-75
2021/08/26 13:07:29;;;;;;;6.90;6.40;;;20.10;45.00;;;;;;10449032;28;20324;-77
2021/08/26 13:12:35;;;;;;;7.20;6.50;;;20.20;44.30;;;;;;10445648;28;20224;-76
2021/08/26 13:17:40;;;;;;;7.27;6.60;;;20.30;44.60;;;;;;10449175;28;20221;-77
2021/08/26 13:22:44;;;;;;;7.33;6.73;;;20.40;44.40;;;;;;10448399;28;20229;-76
2021/08/26 13:27:48;;;;;;;6.87;6.27;;;20.50;44.00;;;;;;10446859;28;20225;-76
2021/08/26 13:32:52;;;;;;;6.10;5.57;;;20.50;43.60;;;;;;10449510;28;20221;-76
2021/08/26 13:37:56;;;;;;;6.10;5.60;;;20.50;43.20;;;;;;10449690;28;20220;-76
2021/08/26 13:43:01;;;;;;;5.87;5.37;;;20.50;43.20;;;;;;10453655;28;20686;-76
2021/08/26 13:48:05;;;;;;;6.50;6.00;;;20.50;43.10;;;;;;10446294;28;20229;-76
2021/08/26 13:53:08;;;;;;;6.03;5.53;;;20.50;43.60;;;;;;10449400;28;20657;-76
2021/08/26 13:58:12;;;;;;;5.13;4.67;;;20.60;43.20;;;;;;10443781;28;20228;-77
2021/08/26 14:03:16;;;;;;;5.37;4.87;;;20.60;43.00;;;;;;10447275;28;20232;-76
2021/08/26 14:08:19;;;;;;;5.10;4.70;;;20.70;43.10;;;;;;10447004;28;20759;-76
2021/08/26 14:13:24;;;;;;;6.03;5.43;;;20.70;43.10;;;;;;10446875;28;20233;-77
2021/08/26 14:18:27;;;;;;;6.33;5.77;;;20.80;42.80;;;;;;10443084;28;20299;-75
2021/08/26 14:23:30;;;;;;;5.30;4.87;;;20.80;42.60;;;;;;10445335;28;20229;-75
2021/08/26 14:28:35;;;;;;;5.60;5.20;;;20.80;42.50;;;;;;10446033;28;20228;-76
2021/08/26 14:33:38;;;;;;;5.17;4.77;;;20.80;42.40;;;;;;10447419;28;20231;-77
2021/08/26 14:38:41;;;;;;;5.20;4.77;;;20.90;42.10;;;;;;10443557;28;20217;-76
2021/08/26 14:43:46;;;;;;;4.63;4.23;;;20.90;42.20;;;;;;10443975;28;20252;-76
2021/08/26 14:48:49;;;;;;;4.27;3.87;;;20.90;42.20;;;;;;10442435;28;20220;-76
2021/08/26 14:53:52;;;;;;;3.93;3.63;;;21.00;42.10;;;;;;10443287;28;20232;-76
2021/08/26 14:58:57;;;;;;;2.43;2.30;;;21.00;42.20;;;;;;10443893;28;20237;-76
2021/08/26 15:04:00;;;;;;;2.40;2.30;;;21.00;41.50;;;;;;10442304;28;20236;-76
2021/08/26 15:09:04;;;;;;;2.30;2.10;;;21.00;41.90;;;;;;10442381;28;20701;-76
2021/08/26 15:14:08;;;;;;;2.10;1.90;;;21.00;41.80;;;;;;10444049;28;20744;-77
2021/08/26 15:19:12;;;;;;;2.00;1.90;;;21.10;41.30;;;;;;10445669;28;20217;-75
2021/08/26 15:24:15;;;;;;;1.90;1.80;;;21.10;41.30;;;;;;10444987;28;20236;-75
2021/08/26 15:29:19;;;;;;;2.20;2.10;;;21.10;42.10;;;;;;10441060;28;20229;-75
2021/08/26 15:34:23;;;;;;;2.07;1.87;;;21.10;40.50;;;;;;10446638;28;20264;-74
2021/08/26 15:39:26;;;;;;;2.23;2.03;;;21.20;40.70;;;;;;10451339;28;20230;-73
2021/08/26 15:44:31;;;;;;;2.10;1.90;;;21.00;39.50;;;;;;10446246;28;20224;-74
2021/08/26 15:49:38;;;;;;;4.10;2.10;;;20.90;38.70;;;;;;10452488;28;20225;-75
2021/08/26 15:54:51;;;;;;;2.00;1.90;;;20.60;39.30;;;;;;10451921;28;20233;-74
2021/08/26 16:00:06;;;;;;;2.77;2.20;;;20.30;39.80;;;;;;10453837;28;20229;-75
2021/08/26 16:05:10;;;;;;;2.60;2.10;;;20.10;40.00;;;;;;10452457;28;20233;-74
2021/08/26 16:10:13;;;;;;;4.47;2.03;;;19.90;40.70;;;;;;10453411;28;20232;-75
2021/08/26 16:15:19;;;;;;;2.40;2.20;;;19.70;40.20;;;;;;10453771;28;20591;-75
2021/08/26 16:20:23;;;;;;;2.30;2.10;;;19.50;40.50;;;;;;10453772;28;20231;-76
2021/08/26 16:25:27;;;;;;;2.60;2.40;;;19.40;40.80;;;;;;10453596;28;20717;-76
2021/08/26 16:30:31;;;;;;;3.57;2.70;;;19.30;41.10;;;;;;10453610;28;20235;-76
2021/08/26 16:35:35;;;;;;;3.90;3.60;;;19.30;41.20;;;;;;10452340;28;20348;-77
2021/08/26 16:40:41;;;;;;;5.13;2.53;;;19.20;41.30;;;;;;10451218;28;20229;-76
2021/08/26 16:45:45;;;;;;;2.80;2.47;;;19.10;41.60;;;;;;10449468;28;20225;-76
2021/08/26 16:50:49;;;;;;;2.80;2.60;;;19.10;42.50;;;;;;10450926;28;20233;-76
2021/08/26 16:55:52;;;;;;;3.00;2.80;;;19.20;43.10;;;;;;10452256;28;20701;-76
2021/08/26 17:00:56;;;;;;;4.93;2.67;;;19.30;42.90;;;;;;10451143;28;20231;-76
2021/08/26 17:06:00;;;;;;;2.97;2.77;;;19.50;43.10;;;;;;10450844;28;20692;-76
2021/08/26 17:11:03;;;;;;;2.80;2.60;;;19.60;42.60;;;;;;10450566;28;20595;-76
2021/08/26 17:16:07;;;;;;;2.80;2.60;;;19.70;42.60;;;;;;10449953;28;20232;-76
2021/08/26 17:21:13;;;;;;;4.00;3.67;;;19.80;42.50;;;;;;10449503;28;20323;-77
2021/08/26 17:26:16;;;;;;;4.37;4.00;;;19.80;43.20;;;;;;10450087;28;20312;-77
2021/08/26 17:31:23;;;;;;;3.70;3.40;;;19.70;42.30;;;;;;10449975;28;20229;-76
2021/08/26 17:36:26;;;;;;;3.70;3.40;;;19.60;42.70;;;;;;10449491;28;20263;-76
2021/08/26 17:41:30;;;;;;;2.70;2.50;;;19.50;42.80;;;;;;10449176;28;20248;-76
2021/08/26 17:46:35;;;;;;;3.33;3.00;;;19.40;42.90;;;;;;10448778;28;20235;-76
2021/08/26 17:51:38;;;;;;;4.40;4.00;;;19.40;43.60;;;;;;10448124;28;20621;-76
2021/08/26 17:56:41;;;;;;;3.90;3.53;;;19.40;43.30;;;;;;10447627;28;20300;-76
2021/08/26 18:01:48;;;;;;;4.40;3.57;;;19.30;43.20;;;;;;10448175;28;20229;-76
2021/08/26 18:06:51;;;;;;;3.33;3.03;;;19.30;43.50;;;;;;10447933;28;20233;-76
2021/08/26 18:11:54;;;;;;;3.67;3.37;;;19.30;43.90;;;;;;10448029;28;20232;-77
2021/08/26 18:16:59;;;;;;;5.07;4.20;;;19.30;43.20;;;;;;10449212;28;20221;-76
2021/08/26 18:22:03;;;;;;;3.93;3.53;;;19.30;43.30;;;;;;10448242;28;20221;-76
2021/08/26 18:27:06;;;;;;;4.10;3.80;;;19.40;43.00;;;;;;10448386;28;20577;-78
2021/08/26 18:32:10;;;;;;;4.50;3.90;;;19.30;42.90;;;;;;10448349;28;20228;-76
2021/08/26 18:37:14;;;;;;;3.77;3.47;;;19.30;42.90;;;;;;10448181;28;20233;-76
2021/08/26 18:42:17;;;;;;;4.00;3.70;;;19.30;42.60;;;;;;10449371;28;20240;-76
2021/08/26 18:47:22;;;;;;;3.67;3.33;;;19.30;42.50;;;;;;10448965;28;20237;-76
2021/08/26 18:52:25;;;;;;;3.33;3.03;;;19.30;42.50;;;;;;10449291;28;20239;-76
2021/08/26 18:57:28;;;;;;;3.80;3.50;;;19.30;42.40;;;;;;10448838;28;20233;-79
2021/08/26 19:02:33;;;;;;;4.13;3.70;;;19.20;42.40;;;;;;10448361;28;20251;-76
2021/08/26 19:07:36;;;;;;;3.53;3.23;;;19.20;42.40;;;;;;10451025;28;20236;-76
2021/08/26 19:12:41;;;;;;;3.60;3.20;;;19.20;42.30;;;;;;10455252;28;20224;-76
2021/08/26 19:17:46;;;;;;;3.67;2.87;;;19.20;42.20;;;;;;10455730;28;20604;-77
2021/08/26 19:22:50;;;;;;;3.20;2.90;;;19.20;42.20;;;;;;10457267;28;20236;-76
2021/08/26 19:27:53;;;;;;;3.13;2.80;;;19.20;41.90;;;;;;10459709;28;20333;-75
2021/08/26 19:32:58;;;;;;;2.90;2.60;;;19.10;41.60;;;;;;10460132;28;20610;-76
2021/08/26 19:38:02;;;;;;;3.37;3.07;;;19.00;41.70;;;;;;10459843;28;20225;-77
2021/08/26 19:43:05;;;;;;;3.60;3.00;;;19.00;41.40;;;;;;10458524;28;20239;-77
2021/08/26 19:48:10;;;;;;;4.10;3.10;;;18.90;41.40;;;;;;10458365;28;20261;-77
2021/08/26 19:53:13;;;;;;;3.30;2.73;;;18.80;41.60;;;;;;10450466;28;20827;-77
2021/08/26 19:58:16;;;;;;;4.13;2.80;;;18.70;41.50;;;;;;10457447;28;20239;-75
2021/08/26 20:03:21;;;;;;;2.43;2.23;;;18.60;41.50;;;;;;10459156;28;20221;-77
2021/08/26 20:08:25;;;;;;;2.30;2.10;;;18.60;41.90;;;;;;10447924;28;20247;-76
2021/08/26 20:13:28;;;;;;;3.23;2.20;;;18.50;41.90;;;;;;10448946;28;20225;-77
2021/08/26 20:18:33;;;;;;;2.60;2.40;;;18.50;42.00;;;;;;10453635;28;20593;-76
2021/08/26 20:23:36;;;;;;;2.40;2.20;;;18.50;42.10;;;;;;10455351;28;20286;-76
2021/08/26 20:28:40;;;;;;;3.07;2.77;;;18.50;42.10;;;;;;10455686;28;20590;-76
2021/08/26 20:33:44;;;;;;;2.10;2.00;;;18.40;42.20;;;;;;10455244;28;20260;-76
2021/08/26 20:38:48;;;;;;;2.53;1.90;;;18.40;42.30;;;;;;10439048;28;20225;-76
2021/08/26 20:43:52;;;;;;;1.90;1.80;;;18.40;42.20;;;;;;10455000;28;20857;-76
2021/08/26 20:48:57;;;;;;;6.70;6.10;;;18.40;42.40;;;;;;10455452;28;20225;-76
2021/08/26 20:54:00;;;;;;;2.90;2.60;;;18.40;42.50;;;;;;10452039;28;20232;-75
2021/08/26 20:59:04;;;;;;;2.77;2.50;;;18.40;42.40;;;;;;10450705;28;20227;-76
2021/08/26 21:04:08;;;;;;;2.60;2.37;;;18.30;42.30;;;;;;10449783;28;20311;-76
2021/08/26 21:09:12;;;;;;;3.07;1.93;;;18.30;42.70;;;;;;10450355;28;21046;-76
2021/08/26 21:14:15;;;;;;;1.90;1.60;;;18.30;42.70;;;;;;10442050;28;20239;-76
2021/08/26 21:19:20;;;;;;;2.30;1.80;;;18.30;42.70;;;;;;10449789;28;20251;-76
2021/08/26 21:24:23;;;;;;;2.70;1.93;;;18.30;43.00;;;;;;10449298;28;20243;-76
2021/08/26 21:29:26;;;;;;;2.90;2.60;;;18.20;42.70;;;;;;10449346;28;20236;-76
2021/08/26 21:34:30;;;;;;;1.67;1.57;;;18.20;42.70;;;;;;10449216;28;20235;-76
2021/08/26 21:39:34;;;;;;;2.20;2.00;;;18.10;43.00;;;;;;10448775;28;20221;-76
2021/08/26 21:44:37;;;;;;;1.87;1.77;;;18.10;43.00;;;;;;10419795;28;20717;-76
2021/08/26 21:49:41;;;;;;;1.63;1.53;;;18.10;43.20;;;;;;10419729;28;20243;-76
2021/08/26 21:54:47;;;;;;;2.03;1.70;;;18.00;43.30;;;;;;10447980;28;20911;-76
2021/08/26 21:59:50;;;;;;;1.73;1.63;;;17.90;43.10;;;;;;10439991;28;20312;-76
2021/08/26 22:04:55;;;;;;;2.40;1.60;;;17.90;43.40;;;;;;10447423;28;20236;-76
2021/08/26 22:09:58;;;;;;;1.33;1.23;;;17.90;43.90;;;;;;10447450;28;20235;-76
2021/08/26 22:15:01;;;;;;;1.67;1.30;;;17.90;43.40;;;;;;10447964;28;20228;-75
2021/08/26 22:20:08;;;;;;;1.20;1.20;;;17.90;43.40;;;;;;10448204;28;20308;-75
2021/08/26 22:25:13;;;;;;;1.20;1.10;;;17.90;43.40;;;;;;10448155;28;20315;-75
2021/08/26 22:30:16;;;;;;;1.10;1.00;;;17.90;43.60;;;;;;10407396;28;20229;-75
2021/08/26 22:35:23;;;;;;;1.57;1.23;;;17.90;43.40;;;;;;10431762;28;20236;-75
2021/08/26 22:40:26;;;;;;;1.57;1.20;;;17.90;43.80;;;;;;10446937;28;20227;-75
2021/08/26 22:45:29;;;;;;;1.53;1.30;;;17.90;43.40;;;;;;10447190;28;20721;-75
2021/08/26 22:50:34;;;;;;;1.50;1.40;;;17.90;43.40;;;;;;10447567;28;20221;-75
2021/08/26 22:55:44;;;;;;;1.47;1.37;;;17.90;43.60;;;;;;10447688;28;20575;-75
2021/08/26 23:00:47;;;;;;;0.90;0.90;;;17.90;43.80;;;;;;10447562;28;20606;-75
2021/08/26 23:05:52;;;;;;;1.20;1.10;;;17.90;43.30;;;;;;10447335;28;20249;-75
2021/08/26 23:10:55;;;;;;;0.97;0.97;;;17.90;43.60;;;;;;10447426;28;20224;-75
2021/08/26 23:15:58;;;;;;;1.50;1.40;;;17.90;43.50;;;;;;10446899;28;20316;-75
2021/08/26 23:21:03;;;;;;;1.33;1.17;;;17.90;43.70;;;;;;10446590;28;20224;-75
2021/08/26 23:26:08;;;;;;;1.00;1.00;;;17.90;43.70;;;;;;10446850;28;20229;-75
2021/08/26 23:31:11;;;;;;;2.23;1.23;;;17.90;43.70;;;;;;10446772;28;20236;-76
2021/08/26 23:36:16;;;;;;;1.50;1.27;;;17.90;43.60;;;;;;10446513;28;20240;-75
2021/08/26 23:41:19;;;;;;;1.60;1.50;;;17.90;43.90;;;;;;10446682;28;20225;-75
2021/08/26 23:46:22;;;;;;;3.30;1.70;;;17.90;43.50;;;;;;10445854;28;20237;-75
2021/08/26 23:51:27;;;;;;;3.30;1.60;;;17.90;43.60;;;;;;10445706;28;20644;-75
2021/08/26 23:56:30;;;;;;;1.87;1.77;;;17.80;43.80;;;;;;10453286;28;20216;-75
